createdAt,value
2018-05-01T04:09:47.348Z,0
2018-05-01T04:10:12.817Z,0
2018-05-01T04:10:38.259Z,0
2018-05-01T04:11:03.738Z,0
2018-05-01T04:11:29.217Z,0
2018-05-01T04:11:54.665Z,0
2018-05-01T04:12:20.136Z,0
2018-05-01T04:12:45.583Z,0
2018-05-01T04:13:11.046Z,0
2018-05-01T04:13:36.476Z,0
2018-05-01T04:14:01.981Z,0
2018-05-01T04:14:27.421Z,0
2018-05-01T04:14:52.872Z,0
2018-05-01T04:15:18.313Z,0
2018-05-01T04:15:43.789Z,0
2018-05-01T04:16:09.253Z,0
2018-05-01T04:16:34.694Z,0
2018-05-01T04:17:00.204Z,0
2018-05-01T04:17:25.693Z,0
2018-05-01T04:17:51.103Z,0
2018-05-01T04:18:16.586Z,0
2018-05-01T04:18:42.064Z,0
2018-05-01T04:19:07.506Z,0
2018-05-01T04:19:33.021Z,0
2018-05-01T04:19:58.438Z,0
2018-05-01T04:20:23.900Z,5
2018-05-01T04:20:49.454Z,5
2018-05-01T04:21:14.949Z,0
2018-05-01T04:21:40.368Z,0
2018-05-01T04:22:05.840Z,0
2018-05-01T04:22:31.281Z,0
2018-05-01T04:22:56.741Z,0
2018-05-01T04:23:22.286Z,0
2018-05-01T04:23:47.770Z,0
2018-05-01T04:24:13.199Z,0
2018-05-01T04:24:38.676Z,5
2018-05-01T04:25:04.144Z,5
2018-05-01T04:25:29.583Z,0
2018-05-01T04:25:55.032Z,0
2018-05-01T04:26:20.473Z,0
2018-05-01T04:26:45.948Z,5
2018-05-01T04:27:11.519Z,0
2018-05-01T04:27:36.882Z,5
2018-05-01T04:28:02.316Z,5
2018-05-01T04:28:27.807Z,5
2018-05-01T04:28:53.213Z,5
2018-05-01T04:29:18.725Z,5
2018-05-01T04:29:44.124Z,0
2018-05-01T04:30:09.594Z,5
2018-05-01T04:30:35.110Z,5
2018-05-01T04:31:00.702Z,5
2018-05-01T04:31:26.197Z,5
2018-05-01T04:31:51.613Z,5
2018-05-01T04:32:17.090Z,5
2018-05-01T04:32:42.636Z,5
2018-05-01T04:33:08.176Z,5
2018-05-01T04:33:33.588Z,5
2018-05-01T04:33:59.046Z,5
2018-05-01T04:34:24.501Z,5
2018-05-01T04:34:49.979Z,5
2018-05-01T04:35:15.456Z,5
2018-05-01T04:35:40.881Z,5
2018-05-01T04:36:06.348Z,5
2018-05-01T04:36:31.790Z,5
2018-05-01T04:36:57.336Z,5
2018-05-01T04:37:22.819Z,5
2018-05-01T04:37:48.276Z,5
2018-05-01T04:38:13.709Z,5
2018-05-01T04:38:39.143Z,5
2018-05-01T04:39:04.625Z,5
2018-05-01T04:39:30.127Z,5
2018-05-01T04:39:55.539Z,5
2018-05-01T04:40:21.000Z,10
2018-05-01T04:40:46.507Z,10
2018-05-01T04:41:11.915Z,10
2018-05-01T04:41:37.409Z,5
2018-05-01T04:42:02.872Z,5
2018-05-01T04:42:28.293Z,5
2018-05-01T04:42:53.728Z,10
2018-05-01T04:43:19.204Z,15
2018-05-01T04:43:44.701Z,10
2018-05-01T04:44:10.161Z,10
2018-05-01T04:44:35.664Z,10
2018-05-01T04:45:01.118Z,15
2018-05-01T04:45:26.555Z,15
2018-05-01T04:45:52.038Z,10
2018-05-01T04:46:17.536Z,10
2018-05-01T04:46:42.970Z,10
2018-05-01T04:47:08.456Z,10
2018-05-01T04:47:33.953Z,10
2018-05-01T04:47:59.363Z,10
2018-05-01T04:48:24.854Z,15
2018-05-01T04:48:50.295Z,15
2018-05-01T04:49:15.765Z,15
2018-05-01T04:49:41.262Z,15
2018-05-01T04:50:06.695Z,15
2018-05-01T04:50:32.205Z,15
2018-05-01T04:50:57.673Z,15
2018-05-01T04:51:23.164Z,20
2018-05-01T04:51:48.654Z,15
2018-05-01T04:52:14.149Z,15
2018-05-01T04:52:39.585Z,15
2018-05-01T04:53:05.137Z,20
2018-05-01T04:53:30.590Z,15
2018-05-01T04:53:56.095Z,15
2018-05-01T04:54:21.565Z,10
2018-05-01T04:54:47.011Z,10
2018-05-01T04:55:12.461Z,10
2018-05-01T04:55:37.899Z,15
2018-05-01T04:56:03.373Z,15
2018-05-01T04:56:28.820Z,15
2018-05-01T04:56:54.249Z,10
2018-05-01T04:57:19.726Z,10
2018-05-01T04:57:45.176Z,15
2018-05-01T04:58:10.679Z,15
2018-05-01T04:58:36.153Z,20
2018-05-01T04:59:01.566Z,15
2018-05-01T04:59:27.025Z,15
2018-05-01T04:59:52.508Z,15
2018-05-01T05:00:17.994Z,15
2018-05-01T05:00:43.422Z,15
2018-05-01T05:01:08.886Z,20
2018-05-01T05:01:34.378Z,25
2018-05-01T05:01:59.871Z,20
2018-05-01T05:02:25.306Z,20
2018-05-01T05:02:50.793Z,25
2018-05-01T05:03:16.319Z,20
2018-05-01T05:03:41.731Z,20
2018-05-01T05:04:07.274Z,15
2018-05-01T05:04:32.714Z,15
2018-05-01T05:04:58.165Z,15
2018-05-01T05:05:23.649Z,15
2018-05-01T05:05:49.157Z,20
2018-05-01T05:06:14.628Z,20
2018-05-01T05:06:40.079Z,15
2018-05-01T05:07:05.624Z,20
2018-05-01T05:07:31.076Z,25
2018-05-01T05:07:56.544Z,20
2018-05-01T05:08:22.038Z,20
2018-05-01T05:08:47.478Z,25
2018-05-01T05:09:12.940Z,25
2018-05-01T05:09:38.372Z,20
2018-05-01T05:10:03.841Z,25
2018-05-01T05:10:29.320Z,20
2018-05-01T05:10:54.755Z,15
2018-05-01T05:11:20.272Z,15
2018-05-01T05:11:45.719Z,15
2018-05-01T05:12:11.121Z,15
2018-05-01T05:12:36.601Z,15
2018-05-01T05:13:02.035Z,15
2018-05-01T05:13:27.534Z,15
2018-05-01T05:13:53.006Z,15
2018-05-01T05:14:18.513Z,15
2018-05-01T05:14:44.007Z,15
2018-05-01T05:15:09.575Z,20
2018-05-01T05:15:35.313Z,20
2018-05-01T05:16:00.789Z,25
2018-05-01T05:16:26.287Z,25
2018-05-01T05:16:51.750Z,20
2018-05-01T05:17:17.218Z,25
2018-05-01T05:17:42.606Z,30
2018-05-01T05:18:08.091Z,30
2018-05-01T05:18:33.522Z,25
2018-05-01T05:18:58.971Z,30
2018-05-01T05:19:24.484Z,35
2018-05-01T05:19:49.982Z,20
2018-05-01T05:20:15.442Z,25
2018-05-01T05:20:40.863Z,20
2018-05-01T05:21:06.345Z,25
2018-05-01T05:21:31.891Z,25
2018-05-01T05:21:57.382Z,25
2018-05-01T05:22:22.892Z,25
2018-05-01T05:22:48.352Z,30
2018-05-01T05:23:13.844Z,25
2018-05-01T05:23:39.293Z,25
2018-05-01T05:24:04.781Z,25
2018-05-01T05:24:30.279Z,35
2018-05-01T05:24:55.777Z,30
2018-05-01T05:25:21.685Z,35
2018-05-01T05:25:47.565Z,25
2018-05-01T05:26:13.083Z,25
2018-05-01T05:26:38.523Z,30
2018-05-01T05:27:04.120Z,30
2018-05-01T05:27:29.706Z,35
2018-05-01T05:27:55.221Z,40
2018-05-01T05:28:20.922Z,35
2018-05-01T05:28:47.640Z,35
2018-05-01T05:29:17.451Z,25
2018-05-01T05:29:43.943Z,30
2018-05-01T05:30:09.463Z,30
2018-05-01T05:30:35.117Z,30
2018-05-01T05:31:00.792Z,25
2018-05-01T05:31:26.474Z,25
2018-05-01T05:31:51.995Z,25
2018-05-01T05:32:17.476Z,25
2018-05-01T05:32:42.946Z,30
2018-05-01T05:33:08.511Z,30
2018-05-01T05:33:34.055Z,30
2018-05-01T05:33:59.539Z,30
2018-05-01T05:34:25.089Z,30
2018-05-01T05:34:51.104Z,35
2018-05-01T05:35:17.217Z,30
2018-05-01T05:35:42.779Z,30
2018-05-01T05:36:08.345Z,25
2018-05-01T05:36:34.137Z,25
2018-05-01T05:36:59.802Z,35
2018-05-01T05:37:25.254Z,30
2018-05-01T05:37:50.780Z,35
2018-05-01T05:38:16.307Z,25
2018-05-01T05:38:41.843Z,30
2018-05-01T05:39:07.326Z,30
2018-05-01T05:39:32.944Z,30
2018-05-01T05:39:58.448Z,30
2018-05-01T05:40:23.990Z,25
2018-05-01T05:40:49.441Z,25
2018-05-01T05:41:15.030Z,25
2018-05-01T05:41:40.545Z,20
2018-05-01T05:42:06.257Z,20
2018-05-01T05:42:31.748Z,25
2018-05-01T05:42:57.328Z,25
2018-05-01T05:43:22.851Z,25
2018-05-01T05:43:48.335Z,25
2018-05-01T05:44:13.858Z,25
2018-05-01T05:44:39.410Z,25
2018-05-01T05:45:04.923Z,25
2018-05-01T05:45:30.430Z,25
2018-05-01T05:45:55.892Z,25
2018-05-01T05:46:21.375Z,20
2018-05-01T05:46:46.813Z,20
2018-05-01T05:47:12.239Z,25
2018-05-01T05:47:37.704Z,25
2018-05-01T05:48:03.380Z,30
2018-05-01T05:48:28.842Z,25
2018-05-01T05:48:54.388Z,25
2018-05-01T05:49:19.743Z,25
2018-05-01T05:49:45.219Z,25
2018-05-01T05:50:10.681Z,25
2018-05-01T05:50:36.171Z,30
2018-05-01T05:51:01.593Z,25
2018-05-01T05:51:27.077Z,30
2018-05-01T05:51:52.544Z,30
2018-05-01T05:52:18.089Z,25
2018-05-01T05:52:43.560Z,30
2018-05-01T05:53:09.024Z,30
2018-05-01T05:53:34.507Z,25
2018-05-01T05:54:00.030Z,25
2018-05-01T05:54:25.527Z,25
2018-05-01T05:54:50.957Z,25
2018-05-01T05:55:16.435Z,25
2018-05-01T05:55:41.952Z,20
2018-05-01T05:56:07.343Z,25
2018-05-01T05:56:32.875Z,25
2018-05-01T05:56:58.285Z,25
2018-05-01T05:57:23.743Z,40
2018-05-01T05:57:49.279Z,35
2018-05-01T05:58:14.694Z,30
2018-05-01T05:58:40.185Z,25
2018-05-01T05:59:05.749Z,25
2018-05-01T05:59:31.228Z,30
2018-05-01T05:59:56.675Z,25
2018-05-01T06:00:22.131Z,20
2018-05-01T06:00:47.627Z,20
2018-05-01T06:01:13.116Z,35
2018-05-01T06:01:38.567Z,35
2018-05-01T06:02:04.001Z,30
2018-05-01T06:02:29.475Z,25
2018-05-01T06:02:54.934Z,20
2018-05-01T06:03:20.396Z,25
2018-05-01T06:03:45.885Z,20
2018-05-01T06:04:11.474Z,30
2018-05-01T06:04:37.026Z,35
2018-05-01T06:05:02.488Z,30
2018-05-01T06:05:27.933Z,25
2018-05-01T06:05:53.515Z,25
2018-05-01T06:06:18.905Z,40
2018-05-01T06:06:44.377Z,50
2018-05-01T06:07:09.855Z,35
2018-05-01T06:07:35.291Z,30
2018-05-01T06:08:00.765Z,35
2018-05-01T06:08:26.253Z,35
2018-05-01T06:08:51.692Z,55
2018-05-01T06:09:17.174Z,45
2018-05-01T06:09:42.648Z,35
2018-05-01T06:10:08.084Z,35
2018-05-01T06:10:33.562Z,45
2018-05-01T06:10:59.076Z,40
2018-05-01T06:11:24.554Z,30
2018-05-01T06:11:50.058Z,35
2018-05-01T06:12:15.509Z,40
2018-05-01T06:12:40.931Z,40
2018-05-01T06:13:06.478Z,35
2018-05-01T06:13:31.993Z,45
2018-05-01T06:13:57.449Z,40
2018-05-01T06:14:22.966Z,45
2018-05-01T06:14:48.377Z,40
2018-05-01T06:15:13.841Z,40
2018-05-01T06:15:39.350Z,35
2018-05-01T06:16:04.814Z,45
2018-05-01T06:16:30.249Z,35
2018-05-01T06:16:55.792Z,35
2018-05-01T06:17:21.301Z,35
2018-05-01T06:17:46.759Z,40
2018-05-01T06:18:12.275Z,40
2018-05-01T06:18:37.754Z,30
2018-05-01T06:19:03.207Z,35
2018-05-01T06:19:28.683Z,40
2018-05-01T06:19:54.169Z,40
2018-05-01T06:20:19.636Z,45
2018-05-01T06:20:45.112Z,50
2018-05-01T06:21:10.613Z,40
2018-05-01T06:21:36.079Z,35
2018-05-01T06:22:01.601Z,40
2018-05-01T06:22:26.992Z,45
2018-05-01T06:22:52.450Z,45
2018-05-01T06:23:17.938Z,60
2018-05-01T06:23:43.414Z,60
2018-05-01T06:24:08.827Z,45
2018-05-01T06:24:34.344Z,50
2018-05-01T06:24:59.741Z,50
2018-05-01T06:25:25.273Z,55
2018-05-01T06:25:50.765Z,55
2018-05-01T06:26:16.232Z,40
2018-05-01T06:26:41.715Z,35
2018-05-01T06:27:07.153Z,50
2018-05-01T06:27:32.690Z,60
2018-05-01T06:27:58.181Z,65
2018-05-01T06:28:23.646Z,60
2018-05-01T06:28:49.179Z,60
2018-05-01T06:29:14.609Z,60
2018-05-01T06:29:40.115Z,50
2018-05-01T06:30:05.537Z,40
2018-05-01T06:30:30.970Z,35
2018-05-01T06:30:56.461Z,40
2018-05-01T06:31:21.944Z,45
2018-05-01T06:31:47.412Z,35
2018-05-01T06:32:12.833Z,45
2018-05-01T06:32:38.260Z,55
2018-05-01T06:33:03.743Z,50
2018-05-01T06:33:29.283Z,50
2018-05-01T06:33:54.729Z,55
2018-05-01T06:34:20.201Z,55
2018-05-01T06:34:45.714Z,65
2018-05-01T06:35:11.126Z,60
2018-05-01T06:35:36.572Z,40
2018-05-01T06:36:02.108Z,35
2018-05-01T06:36:27.546Z,55
2018-05-01T06:36:53.037Z,50
2018-05-01T06:37:18.495Z,65
2018-05-01T06:37:43.973Z,40
2018-05-01T06:38:09.765Z,40
2018-05-01T06:38:35.501Z,55
2018-05-01T06:39:01.706Z,50
2018-05-01T06:39:28.607Z,50
2018-05-01T06:39:55.278Z,55
2018-05-01T06:40:21.458Z,60
2018-05-01T06:40:48.090Z,40
2018-05-01T06:41:17.169Z,45
2018-05-01T06:41:44.151Z,65
2018-05-01T06:43:12.198Z,65
2018-05-01T06:43:37.829Z,65
2018-05-01T06:44:03.327Z,70
2018-05-01T06:44:28.793Z,70
2018-05-01T06:44:54.449Z,55
2018-05-01T06:45:20.269Z,65
2018-05-01T06:45:46.046Z,90
2018-05-01T06:46:11.612Z,90
2018-05-01T06:46:37.356Z,75
2018-05-01T06:47:03.519Z,65
2018-05-01T06:47:28.879Z,70
2018-05-01T06:47:54.648Z,75
2018-05-01T06:48:20.497Z,70
2018-05-01T06:48:46.272Z,70
2018-05-01T06:49:13.033Z,90
2018-05-01T06:49:39.162Z,70
2018-05-01T06:50:04.728Z,75
2018-05-01T06:50:31.077Z,90
2018-05-01T06:50:57.058Z,90
2018-05-01T06:51:22.742Z,75
2018-05-01T06:51:48.550Z,85
2018-05-01T06:52:14.123Z,75
2018-05-01T06:52:40.173Z,70
2018-05-01T06:53:06.012Z,70
2018-05-01T06:53:31.686Z,55
2018-05-01T06:53:58.566Z,65
2018-05-01T06:54:25.346Z,70
2018-05-01T06:54:51.227Z,65
2018-05-01T06:55:17.083Z,65
2018-05-01T06:55:43.172Z,60
2018-05-01T06:56:08.708Z,70
2018-05-01T06:56:34.342Z,65
2018-05-01T06:57:00.426Z,45
2018-05-01T06:57:25.881Z,50
2018-05-01T06:57:51.838Z,65
2018-05-01T06:58:17.804Z,65
2018-05-01T06:58:43.785Z,65
2018-05-01T06:59:09.654Z,55
2018-05-01T06:59:35.605Z,50
2018-05-01T07:00:01.107Z,60
2018-05-01T07:00:26.717Z,55
2018-05-01T07:00:52.455Z,60
2018-05-01T07:01:18.442Z,65
2018-05-01T07:01:43.922Z,65
2018-05-01T07:02:09.796Z,50
2018-05-01T07:02:35.502Z,60
2018-05-01T07:03:02.064Z,75
2018-05-01T07:03:28.181Z,80
2018-05-01T07:03:53.795Z,65
2018-05-01T07:04:19.436Z,70
2018-05-01T07:04:45.239Z,85
2018-05-01T07:05:11.174Z,80
2018-05-01T07:06:21.097Z,75
2018-05-01T07:06:46.919Z,95
2018-05-01T07:07:12.898Z,85
2018-05-01T07:07:38.959Z,75
2018-05-01T07:08:04.828Z,70
2018-05-01T07:08:30.619Z,60
2018-05-01T07:08:57.192Z,75
2018-05-01T07:09:22.763Z,65
2018-05-01T07:09:48.775Z,85
2018-05-01T07:10:14.206Z,75
2018-05-01T07:10:39.614Z,65
2018-05-01T07:11:05.128Z,75
2018-05-01T07:11:30.685Z,60
2018-05-01T07:11:56.251Z,60
2018-05-01T07:12:21.693Z,80
2018-05-01T07:12:47.158Z,75
2018-05-01T07:13:12.951Z,60
2018-05-01T07:13:38.438Z,50
2018-05-01T07:14:03.888Z,55
2018-05-01T07:14:30.531Z,50
2018-05-01T07:14:55.172Z,45
2018-05-01T07:15:20.671Z,45
2018-05-01T07:15:46.225Z,45
2018-05-01T07:16:11.598Z,45
2018-05-01T07:16:37.147Z,55
2018-05-01T07:17:02.571Z,60
2018-05-01T07:17:28.038Z,55
2018-05-01T07:17:53.487Z,45
2018-05-01T07:18:18.968Z,45
2018-05-01T07:18:44.448Z,50
2018-05-01T07:19:09.879Z,60
2018-05-01T07:19:35.328Z,70
2018-05-01T07:20:00.843Z,60
2018-05-01T07:20:26.290Z,45
2018-05-01T07:20:51.766Z,50
2018-05-01T07:21:17.273Z,50
2018-05-01T07:21:42.765Z,45
2018-05-01T07:22:08.195Z,50
2018-05-01T07:22:33.653Z,50
2018-05-01T07:22:59.203Z,50
2018-05-01T07:23:24.581Z,70
2018-05-01T07:23:50.067Z,70
2018-05-01T07:24:15.656Z,70
2018-05-01T07:24:41.157Z,75
2018-05-01T07:25:06.699Z,70
2018-05-01T07:25:32.162Z,70
2018-05-01T07:25:57.564Z,60
2018-05-01T07:26:23.252Z,65
2018-05-01T07:26:48.630Z,70
2018-05-01T07:27:14.121Z,65
2018-05-01T07:27:39.580Z,60
2018-05-01T07:28:05.052Z,70
2018-05-01T07:28:30.504Z,80
2018-05-01T07:28:56.005Z,80
2018-05-01T07:29:21.488Z,80
2018-05-01T07:29:46.952Z,85
2018-05-01T07:30:12.430Z,70
2018-05-01T07:30:37.912Z,60
2018-05-01T07:31:03.436Z,60
2018-05-01T07:31:28.999Z,80
2018-05-01T07:31:54.513Z,70
2018-05-01T07:32:20.271Z,65
2018-05-01T07:32:45.812Z,70
2018-05-01T07:33:11.401Z,90
2018-05-01T07:33:37.013Z,75
2018-05-01T07:34:02.666Z,60
2018-05-01T07:34:28.386Z,50
2018-05-01T07:34:54.631Z,50
2018-05-01T07:35:20.309Z,65
2018-05-01T07:35:45.834Z,60
2018-05-01T07:36:11.291Z,50
2018-05-01T07:36:36.834Z,55
2018-05-01T07:37:02.535Z,55
2018-05-01T07:37:28.058Z,55
2018-05-01T07:37:53.499Z,60
2018-05-01T07:38:19.437Z,65
2018-05-01T07:38:44.781Z,70
2018-05-01T07:39:10.311Z,55
2018-05-01T07:39:35.916Z,50
2018-05-01T07:40:01.793Z,55
2018-05-01T07:40:27.388Z,50
2018-05-01T07:40:52.803Z,50
2018-05-01T07:41:18.394Z,50
2018-05-01T07:41:43.926Z,50
2018-05-01T07:42:09.506Z,55
2018-05-01T07:42:35.115Z,50
2018-05-01T07:43:00.973Z,55
2018-05-01T07:43:26.588Z,55
2018-05-01T07:43:52.404Z,50
2018-05-01T07:44:17.853Z,45
2018-05-01T07:44:43.530Z,50
2018-05-01T07:45:09.437Z,60
2018-05-01T07:45:34.852Z,65
2018-05-01T07:46:00.403Z,65
2018-05-01T07:46:25.960Z,60
2018-05-01T07:46:51.522Z,60
2018-05-01T07:47:17.079Z,60
2018-05-01T07:47:42.540Z,60
2018-05-01T07:48:08.199Z,65
2018-05-01T07:48:33.757Z,65
2018-05-01T07:48:59.488Z,60
2018-05-01T07:49:24.862Z,65
2018-05-01T07:49:50.437Z,60
2018-05-01T07:50:16.046Z,70
2018-05-01T07:50:41.547Z,75
2018-05-01T07:51:07.278Z,65
2018-05-01T07:51:32.642Z,65
2018-05-01T07:51:58.276Z,60
2018-05-01T07:52:23.895Z,60
2018-05-01T07:52:49.504Z,80
2018-05-01T07:53:14.963Z,80
2018-05-01T07:53:41.015Z,85
2018-05-01T07:54:06.070Z,90
2018-05-01T07:54:31.816Z,90
2018-05-01T07:54:57.319Z,85
2018-05-01T07:55:23.217Z,85
2018-05-01T07:55:48.813Z,85
2018-05-01T07:56:14.483Z,85
2018-05-01T07:56:40.241Z,90
2018-05-01T07:57:05.789Z,100
2018-05-01T07:57:31.376Z,110
2018-05-01T07:57:57.563Z,100
2018-05-01T07:58:23.437Z,100
2018-05-01T07:58:48.839Z,105
2018-05-01T07:59:14.413Z,105
2018-05-01T07:59:39.919Z,110
2018-05-01T08:00:05.446Z,120
2018-05-01T08:00:31.192Z,105
2018-05-01T08:00:56.896Z,95
2018-05-01T08:01:22.282Z,90
2018-05-01T08:01:47.980Z,90
2018-05-01T08:02:13.555Z,100
2018-05-01T08:02:39.185Z,110
2018-05-01T08:03:04.736Z,95
2018-05-01T08:03:30.289Z,80
2018-05-01T08:03:55.929Z,80
2018-05-01T08:04:21.785Z,85
2018-05-01T08:04:49.428Z,95
2018-05-01T08:05:15.196Z,85
2018-05-01T08:05:40.741Z,95
2018-05-01T08:06:06.437Z,105
2018-05-01T08:06:32.254Z,110
2018-05-01T08:06:58.213Z,100
2018-05-01T08:07:24.689Z,90
2018-05-01T08:07:51.232Z,85
2018-05-01T08:08:17.359Z,85
2018-05-01T08:08:42.982Z,80
2018-05-01T08:09:08.686Z,85
2018-05-01T08:09:34.284Z,105
2018-05-01T08:10:00.389Z,110
2018-05-01T08:10:26.383Z,95
2018-05-01T08:10:51.918Z,90
2018-05-01T08:11:17.741Z,90
2018-05-01T08:11:43.862Z,90
2018-05-01T08:12:09.547Z,90
2018-05-01T08:12:35.385Z,95
2018-05-01T08:13:02.171Z,90
2018-05-01T08:13:28.098Z,90
2018-05-01T08:13:54.091Z,90
2018-05-01T08:14:20.289Z,90
2018-05-01T08:14:45.932Z,85
2018-05-01T08:15:11.500Z,85
2018-05-01T08:15:37.016Z,90
2018-05-01T08:16:02.890Z,105
2018-05-01T08:16:28.326Z,105
2018-05-01T08:16:54.185Z,105
2018-05-01T08:17:19.661Z,95
2018-05-01T08:17:45.107Z,95
2018-05-01T08:18:10.710Z,95
2018-05-01T08:18:36.352Z,95
2018-05-01T08:19:01.769Z,90
2018-05-01T08:19:27.319Z,85
2018-05-01T08:19:52.956Z,85
2018-05-01T08:20:18.394Z,80
2018-05-01T08:20:43.914Z,75
2018-05-01T08:21:09.497Z,75
2018-05-01T08:21:34.991Z,85
2018-05-01T08:22:00.569Z,90
2018-05-01T08:22:26.014Z,90
2018-05-01T08:22:51.622Z,90
2018-05-01T08:23:17.060Z,90
2018-05-01T08:23:42.453Z,90
2018-05-01T08:24:08.095Z,90
2018-05-01T08:24:33.751Z,90
2018-05-01T08:24:59.250Z,80
2018-05-01T08:25:24.846Z,80
2018-05-01T08:25:50.332Z,65
2018-05-01T08:26:15.902Z,60
2018-05-01T08:26:41.526Z,65
2018-05-01T08:27:07.095Z,60
2018-05-01T08:27:32.565Z,60
2018-05-01T08:27:58.033Z,55
2018-05-01T08:28:23.570Z,50
2018-05-01T08:28:49.146Z,50
2018-05-01T08:29:14.680Z,50
2018-05-01T08:29:40.135Z,55
2018-05-01T08:30:05.695Z,55
2018-05-01T08:30:31.475Z,55
2018-05-01T08:30:56.888Z,55
2018-05-01T08:31:22.454Z,60
2018-05-01T08:31:48.126Z,60
2018-05-01T08:32:13.841Z,70
2018-05-01T08:32:39.148Z,75
2018-05-01T08:33:04.748Z,90
2018-05-01T08:33:30.374Z,95
2018-05-01T08:33:55.911Z,100
2018-05-01T08:34:21.541Z,110
2018-05-01T08:34:47.178Z,110
2018-05-01T08:35:12.833Z,120
2018-05-01T08:35:38.342Z,140
2018-05-01T08:36:03.950Z,150
2018-05-01T08:36:29.554Z,155
2018-05-01T08:36:55.277Z,135
2018-05-01T08:37:20.810Z,140
2018-05-01T08:37:46.682Z,150
2018-05-01T08:38:12.119Z,165
2018-05-01T08:38:37.697Z,170
2018-05-01T08:39:03.301Z,175
2018-05-01T08:39:28.904Z,180
2018-05-01T08:39:54.454Z,185
2018-05-01T08:40:20.101Z,200
2018-05-01T08:40:45.620Z,205
2018-05-01T08:41:11.120Z,225
2018-05-01T08:41:36.671Z,240
2018-05-01T08:42:02.207Z,225
2018-05-01T08:42:27.772Z,230
2018-05-01T08:42:53.229Z,225
2018-05-01T08:43:18.950Z,230
2018-05-01T08:43:44.295Z,250
2018-05-01T08:44:09.848Z,260
2018-05-01T08:44:35.365Z,255
2018-05-01T08:45:01.737Z,240
2018-05-01T08:45:27.439Z,230
2018-05-01T08:45:52.929Z,245
2018-05-01T08:46:18.470Z,260
2018-05-01T08:46:44.033Z,245
2018-05-01T08:47:09.742Z,235
2018-05-01T08:47:35.197Z,220
2018-05-01T08:48:00.842Z,210
2018-05-01T08:48:26.419Z,200
2018-05-01T08:48:51.935Z,180
2018-05-01T08:49:17.703Z,210
2018-05-01T08:49:43.347Z,240
2018-05-01T08:50:08.986Z,270
2018-05-01T08:50:34.754Z,285
2018-05-01T08:51:00.487Z,275
2018-05-01T08:51:25.912Z,285
2018-05-01T08:51:51.745Z,325
2018-05-01T08:52:17.364Z,315
2018-05-01T08:52:43.086Z,280
2018-05-01T08:53:08.952Z,305
2018-05-01T08:53:34.246Z,305
2018-05-01T08:54:00.308Z,270
2018-05-01T08:54:25.912Z,315
2018-05-01T08:54:51.311Z,305
2018-05-01T08:55:16.893Z,325
2018-05-01T08:55:42.521Z,370
2018-05-01T08:56:08.131Z,320
2018-05-01T08:56:33.734Z,275
2018-05-01T08:56:59.310Z,280
2018-05-01T08:57:25.067Z,330
2018-05-01T08:57:51.029Z,390
2018-05-01T08:58:16.389Z,430
2018-05-01T08:58:41.890Z,460
2018-05-01T08:59:07.554Z,455
2018-05-01T08:59:33.247Z,430
2018-05-01T08:59:58.754Z,380
2018-05-01T09:00:24.490Z,455
2018-05-01T09:00:50.102Z,485
2018-05-01T09:01:15.748Z,470
2018-05-01T09:01:41.374Z,490
2018-05-01T09:02:06.913Z,515
2018-05-01T09:02:32.380Z,520
2018-05-01T09:02:57.955Z,535
2018-05-01T09:03:23.395Z,490
2018-05-01T09:03:48.984Z,495
2018-05-01T09:04:14.539Z,510
2018-05-01T09:04:40.031Z,515
2018-05-01T09:05:05.804Z,550
2018-05-01T09:05:31.485Z,550
2018-05-01T09:05:56.866Z,495
2018-05-01T09:06:22.498Z,390
2018-05-01T09:06:48.276Z,335
2018-05-01T09:07:13.860Z,330
2018-05-01T09:07:39.559Z,285
2018-05-01T09:08:05.205Z,320
2018-05-01T09:08:30.751Z,295
2018-05-01T09:08:56.246Z,300
2018-05-01T09:09:21.832Z,280
2018-05-01T09:09:47.511Z,300
2018-05-01T09:10:13.261Z,320
2018-05-01T09:10:39.027Z,310
2018-05-01T09:11:04.719Z,295
2018-05-01T09:11:30.272Z,320
2018-05-01T09:11:55.708Z,315
2018-05-01T09:12:21.372Z,315
2018-05-01T09:12:46.957Z,310
2018-05-01T09:13:12.459Z,250
2018-05-01T09:13:38.196Z,220
2018-05-01T09:14:03.718Z,215
2018-05-01T09:14:29.522Z,215
2018-05-01T09:14:54.958Z,250
2018-05-01T09:15:20.673Z,240
2018-05-01T09:15:46.252Z,235
2018-05-01T09:16:11.699Z,255
2018-05-01T09:16:37.274Z,245
2018-05-01T09:17:02.850Z,185
2018-05-01T09:17:28.250Z,225
2018-05-01T09:17:53.929Z,295
2018-05-01T09:18:19.435Z,310
2018-05-01T09:18:44.819Z,255
2018-05-01T09:19:10.331Z,215
2018-05-01T09:19:35.843Z,205
2018-05-01T09:20:01.295Z,230
2018-05-01T09:20:26.807Z,255
2018-05-01T09:20:52.495Z,270
2018-05-01T09:21:18.107Z,260
2018-05-01T09:21:54.234Z,210
2018-05-01T09:22:25.468Z,240
2018-05-01T09:22:53.995Z,305
2018-05-01T09:23:20.844Z,310
2018-05-01T09:23:47.584Z,250
2018-05-01T09:24:13.980Z,195
2018-05-01T09:24:40.809Z,205
2018-05-01T09:25:06.714Z,235
2018-05-01T09:25:32.481Z,300
2018-05-01T09:25:57.871Z,310
2018-05-01T09:26:23.338Z,300
2018-05-01T09:26:48.871Z,315
2018-05-01T09:27:14.492Z,330
2018-05-01T09:27:40.036Z,290
2018-05-01T09:28:05.510Z,265
2018-05-01T09:28:31.039Z,290
2018-05-01T09:28:56.590Z,300
2018-05-01T09:29:22.066Z,315
2018-05-01T09:29:47.632Z,340
2018-05-01T09:30:13.247Z,350
2018-05-01T09:30:38.735Z,310
2018-05-01T09:31:04.939Z,290
2018-05-01T09:31:30.587Z,310
2018-05-01T09:31:56.445Z,310
2018-05-01T09:32:22.060Z,290
2018-05-01T09:32:47.917Z,315
2018-05-01T09:33:13.491Z,310
2018-05-01T09:33:39.468Z,330
2018-05-01T09:34:05.376Z,350
2018-05-01T09:34:31.451Z,355
2018-05-01T09:34:56.823Z,315
2018-05-01T09:35:22.561Z,310
2018-05-01T09:35:48.235Z,305
2018-05-01T09:36:13.986Z,360
2018-05-01T09:36:39.793Z,400
2018-05-01T09:37:05.595Z,440
2018-05-01T09:37:31.325Z,440
2018-05-01T09:37:57.262Z,445
2018-05-01T09:38:23.361Z,460
2018-05-01T09:38:48.823Z,485
2018-05-01T09:39:14.624Z,480
2018-05-01T09:39:40.828Z,480
2018-05-01T09:40:06.643Z,475
2018-05-01T09:40:32.303Z,465
2018-05-01T09:40:57.989Z,485
2018-05-01T09:41:23.812Z,485
2018-05-01T09:41:49.384Z,490
2018-05-01T09:42:15.200Z,500
2018-05-01T09:42:40.890Z,495
2018-05-01T09:43:06.862Z,485
2018-05-01T09:43:32.425Z,485
2018-05-01T09:43:58.061Z,480
2018-05-01T09:44:24.122Z,470
2018-05-01T09:44:49.981Z,485
2018-05-01T09:45:15.565Z,505
2018-05-01T09:45:41.411Z,520
2018-05-01T09:46:07.423Z,495
2018-05-01T09:46:33.238Z,500
2018-05-01T09:46:58.915Z,490
2018-05-01T09:47:24.760Z,500
2018-05-01T09:47:50.501Z,495
2018-05-01T09:48:16.107Z,490
2018-05-01T09:48:42.350Z,490
2018-05-01T09:49:07.556Z,485
2018-05-01T09:49:33.456Z,490
2018-05-01T09:49:59.193Z,500
2018-05-01T09:50:24.871Z,505
2018-05-01T09:50:50.631Z,490
2018-05-01T09:51:16.345Z,460
2018-05-01T09:51:41.943Z,435
2018-05-01T09:52:07.822Z,425
2018-05-01T09:52:33.809Z,425
2018-05-01T09:52:59.511Z,435
2018-05-01T09:53:25.643Z,425
2018-05-01T09:53:51.120Z,445
2018-05-01T09:54:16.809Z,445
2018-05-01T09:54:42.635Z,445
2018-05-01T09:55:08.165Z,440
2018-05-01T09:55:33.854Z,455
2018-05-01T09:55:59.512Z,475
2018-05-01T09:56:25.182Z,495
2018-05-01T09:56:50.973Z,500
2018-05-01T09:57:16.760Z,490
2018-05-01T09:57:43.829Z,460
2018-05-01T09:58:09.397Z,440
2018-05-01T09:58:35.073Z,430
2018-05-01T09:59:01.634Z,430
2018-05-01T09:59:27.292Z,430
2018-05-01T09:59:53.064Z,425
2018-05-01T10:00:18.675Z,435
2018-05-01T10:00:44.548Z,425
2018-05-01T10:01:10.244Z,400
2018-05-01T10:01:35.821Z,360
2018-05-01T10:02:01.474Z,350
2018-05-01T10:02:27.293Z,380
2018-05-01T10:03:58.623Z,410
2018-05-01T10:04:25.000Z,420
2018-05-01T10:04:50.336Z,425
2018-05-01T10:05:16.225Z,415
2018-05-01T10:05:42.043Z,415
2018-05-01T10:06:07.953Z,420
2018-05-01T10:06:33.856Z,440
2018-05-01T10:06:59.383Z,445
2018-05-01T10:07:25.210Z,425
2018-05-01T10:07:50.695Z,405
2018-05-01T10:08:16.305Z,395
2018-05-01T10:08:42.177Z,400
2018-05-01T10:09:07.989Z,420
2018-05-01T10:09:33.943Z,440
2018-05-01T10:09:59.519Z,450
2018-05-01T10:10:25.305Z,445
2018-05-01T10:10:51.209Z,425
2018-05-01T10:11:18.019Z,395
2018-05-01T10:11:45.751Z,360
2018-05-01T10:12:11.404Z,345
2018-05-01T10:12:37.028Z,335
2018-05-01T10:13:03.118Z,355
2018-05-01T10:13:28.830Z,425
2018-05-01T10:13:54.509Z,465
2018-05-01T10:14:20.417Z,440
2018-05-01T10:14:46.068Z,420
2018-05-01T10:15:11.594Z,420
2018-05-01T10:15:37.371Z,420